createdAt,value
2023-04-26T00:00:29.837Z,2.18
2023-04-26T00:01:29.849Z,2.22
2023-04-26T00:02:29.946Z,2.24
2023-04-26T00:03:29.955Z,2.25
2023-04-26T00:04:30.004Z,2.24
2023-04-26T00:05:29.975Z,2.24
2023-04-26T00:06:29.893Z,2.24
2023-04-26T00:07:29.907Z,2.25
2023-04-26T00:08:29.909Z,2.26
2023-04-26T00:09:29.931Z,2.33
2023-04-26T00:10:29.936Z,2.34
2023-04-26T00:11:29.934Z,2.40
2023-04-26T00:12:29.956Z,2.47
2023-04-26T00:13:29.968Z,2.53
2023-04-26T00:14:29.976Z,2.59
2023-04-26T00:32:30.494Z,2.49
2023-04-26T00:33:30.143Z,2.50
2023-04-26T00:34:30.140Z,2.54
2023-04-26T00:35:30.148Z,2.59
2023-04-26T00:36:30.152Z,2.60
2023-04-26T00:37:30.163Z,2.64
2023-04-26T00:38:30.176Z,2.66
2023-04-26T00:39:30.194Z,2.67
2023-04-26T00:40:30.198Z,2.68
2023-04-26T00:41:30.206Z,2.70
2023-04-26T00:42:30.212Z,2.73
2023-04-26T00:43:30.223Z,2.71
2023-04-26T00:44:30.234Z,2.71
2023-04-26T00:45:30.253Z,2.71
2023-04-26T00:46:30.249Z,2.69
2023-04-26T00:47:30.294Z,2.69
2023-04-26T00:48:30.262Z,2.68
2023-04-26T00:49:30.274Z,2.67
2023-04-26T00:50:30.284Z,2.65
2023-04-26T00:51:30.296Z,2.65
2023-04-26T00:52:30.298Z,2.62
2023-04-26T00:53:30.307Z,2.61
2023-04-26T00:54:30.328Z,2.57
2023-04-26T00:55:30.392Z,2.52
2023-04-26T00:56:30.332Z,2.52
2023-04-26T00:57:30.346Z,2.48
2023-04-26T00:58:30.354Z,2.44
2023-04-26T00:59:30.365Z,2.42
2023-04-26T01:00:30.375Z,2.37
2023-04-26T01:01:30.499Z,2.35
2023-04-26T01:02:30.472Z,2.32
2023-04-26T01:03:30.491Z,2.33
2023-04-26T01:04:30.467Z,2.35
2023-04-26T01:05:30.427Z,2.35
2023-04-26T01:06:30.435Z,2.40
2023-04-26T01:07:30.443Z,2.46
2023-04-26T01:08:30.454Z,2.55
2023-04-26T01:09:30.459Z,2.65
2023-04-26T01:10:30.465Z,2.74
2023-04-26T01:11:30.480Z,2.79
2023-04-26T01:12:30.484Z,2.78
2023-04-26T01:13:30.493Z,2.74
2023-04-26T01:14:30.502Z,2.66
2023-04-26T01:15:30.503Z,2.58
2023-04-26T01:16:30.553Z,2.49
2023-04-26T01:17:30.536Z,2.43
2023-04-26T01:18:30.538Z,2.36
2023-04-26T01:19:30.553Z,2.31
2023-04-26T01:20:30.560Z,2.25
2023-04-26T01:21:30.571Z,2.22
2023-04-26T01:22:30.580Z,2.17
2023-04-26T01:23:30.591Z,2.15
2023-04-26T01:24:30.621Z,2.12
2023-04-26T01:25:30.612Z,2.08
2023-04-26T01:26:30.619Z,2.08
2023-04-26T01:27:30.630Z,2.07
2023-04-26T01:28:30.637Z,2.03
2023-04-26T01:29:30.649Z,2.02
2023-04-26T01:30:30.669Z,2.00
2023-04-26T01:31:30.739Z,2.01
2023-04-26T01:32:30.701Z,2.00
2023-04-26T01:33:30.695Z,1.97
2023-04-26T01:34:30.711Z,1.97
2023-04-26T01:35:30.719Z,1.98
2023-04-26T01:36:30.727Z,1.94
2023-04-26T01:37:30.731Z,1.96
2023-04-26T01:38:30.741Z,1.96
2023-04-26T01:39:30.750Z,1.95
2023-04-26T01:40:30.762Z,1.95
2023-04-26T01:41:30.767Z,1.93
2023-04-26T01:42:46.679Z,1.93
2023-04-26T01:43:30.784Z,1.96
2023-04-26T01:44:30.801Z,1.97
2023-04-26T01:45:30.809Z,1.98
2023-04-26T01:46:30.849Z,1.98
2023-04-26T01:47:30.847Z,1.97
2023-04-26T01:48:30.837Z,1.99
2023-04-26T01:49:30.846Z,2.03
2023-04-26T01:50:30.858Z,2.07
2023-04-26T01:51:30.861Z,2.12
2023-04-26T01:52:30.887Z,2.17
2023-04-26T01:53:30.889Z,2.18
2023-04-26T01:54:30.899Z,2.17
2023-04-26T01:55:30.918Z,2.20
2023-04-26T01:56:30.908Z,2.19
2023-04-26T01:57:30.919Z,2.18
2023-04-26T01:58:30.932Z,2.19
2023-04-26T01:59:30.944Z,2.19
2023-04-26T02:00:30.951Z,2.18
2023-04-26T02:01:30.966Z,2.14
2023-04-26T02:02:31.006Z,2.13
2023-04-26T02:03:31.003Z,2.12
2023-04-26T02:04:31.021Z,2.10
2023-04-26T02:05:31.002Z,2.07
2023-04-26T02:06:31.007Z,2.08
2023-04-26T02:07:31.017Z,2.09
2023-04-26T02:08:31.028Z,2.08
2023-04-26T02:09:31.032Z,2.10
2023-04-26T02:10:31.034Z,2.12
2023-04-26T02:11:31.046Z,2.16
2023-04-26T02:12:31.059Z,2.19
2023-04-26T02:13:31.061Z,2.21
2023-04-26T02:14:31.075Z,2.28
2023-04-26T02:15:31.082Z,2.34
2023-04-26T02:16:31.163Z,2.41
2023-04-26T02:17:31.118Z,2.50
2023-04-26T02:18:31.111Z,2.61
2023-04-26T02:19:31.110Z,2.66
2023-04-26T02:20:31.116Z,2.73
2023-04-26T02:21:31.131Z,2.77
2023-04-26T02:22:31.134Z,2.79
2023-04-26T02:23:31.145Z,2.79
2023-04-26T02:24:33.041Z,2.81
2023-04-26T02:25:31.163Z,2.85
2023-04-26T02:26:31.176Z,2.83
2023-04-26T02:27:31.179Z,2.85
2023-04-26T02:28:31.191Z,2.82
2023-04-26T02:29:43.435Z,2.77
2023-04-26T02:30:31.210Z,2.73
2023-04-26T02:31:31.237Z,2.70
2023-04-26T02:32:31.252Z,2.64
2023-04-26T02:33:31.240Z,2.58
2023-04-26T02:34:31.250Z,2.49
2023-04-26T02:35:31.258Z,2.44
2023-04-26T02:36:31.262Z,2.36
2023-04-26T02:37:31.268Z,2.30
2023-04-26T02:38:31.281Z,2.25
2023-04-26T02:39:31.291Z,2.21
2023-04-26T02:40:31.305Z,2.15
2023-04-26T02:41:31.310Z,2.10
2023-04-26T02:42:31.321Z,2.09
2023-04-26T02:43:31.339Z,2.06
2023-04-26T02:44:31.340Z,2.06
2023-04-26T02:45:31.345Z,2.01
2023-04-26T02:46:31.371Z,1.99
2023-04-26T02:47:31.410Z,1.95
2023-04-26T02:48:31.383Z,1.94
2023-04-26T02:49:31.383Z,1.95
2023-04-26T02:50:31.393Z,1.95
2023-04-26T02:51:31.397Z,1.92
2023-04-26T02:52:31.401Z,1.87
2023-04-26T02:53:31.436Z,1.90
2023-04-26T02:54:31.420Z,1.88
2023-04-26T02:55:31.429Z,1.86
2023-04-26T02:56:31.434Z,1.85
2023-04-26T02:57:31.470Z,1.88
2023-04-26T02:58:31.459Z,1.88
2023-04-26T02:59:31.464Z,1.86
2023-04-26T03:00:31.495Z,1.89
2023-04-26T03:01:31.517Z,1.89
2023-04-26T03:02:31.600Z,1.85
2023-04-26T03:03:31.546Z,1.86
2023-04-26T03:04:31.504Z,1.88
2023-04-26T03:05:31.527Z,1.88
2023-04-26T03:06:31.526Z,1.91
2023-04-26T03:07:31.539Z,1.95
2023-04-26T03:08:31.555Z,1.98
2023-04-26T03:09:31.565Z,1.99
2023-04-26T03:10:31.574Z,2.02
2023-04-26T03:11:31.586Z,2.07
2023-04-26T03:12:31.593Z,2.15
2023-04-26T03:13:31.603Z,2.25
2023-04-26T03:14:31.622Z,2.32
2023-04-26T03:15:31.635Z,2.42
2023-04-26T03:16:31.688Z,2.50
2023-04-26T03:17:31.657Z,2.58
2023-04-26T03:18:31.667Z,2.66
2023-04-26T03:19:31.677Z,2.75
2023-04-26T03:20:31.706Z,2.82
2023-04-26T03:21:31.698Z,2.83
2023-04-26T03:22:31.705Z,2.83
2023-04-26T03:23:31.731Z,2.83
2023-04-26T03:24:31.733Z,2.87
2023-04-26T03:25:31.738Z,2.90
2023-04-26T03:26:31.756Z,2.93
2023-04-26T03:27:31.765Z,2.96
2023-04-26T03:28:31.787Z,2.95
2023-04-26T03:29:31.800Z,2.98
2023-04-26T03:30:31.812Z,2.98
2023-04-26T03:31:31.829Z,3.02
2023-04-26T03:32:31.841Z,3.03
2023-04-26T03:33:31.836Z,2.97
2023-04-26T03:34:31.848Z,2.93
2023-04-26T03:35:31.860Z,2.89
2023-04-26T03:36:31.875Z,2.86
2023-04-26T03:37:31.882Z,2.83
2023-04-26T03:38:31.897Z,2.72
2023-04-26T03:39:31.900Z,2.70
2023-04-26T03:40:31.912Z,2.69
2023-04-26T03:41:31.925Z,2.68
2023-04-26T03:42:31.935Z,2.65
2023-04-26T03:43:31.942Z,2.62
2023-04-26T03:44:31.955Z,2.58
2023-04-26T03:45:31.969Z,2.54
2023-04-26T03:46:32.083Z,2.56
2023-04-26T03:47:32.031Z,2.56
2023-04-26T03:48:31.992Z,2.57
2023-04-26T03:49:32.002Z,2.66
2023-04-26T03:50:32.022Z,2.67
2023-04-26T03:51:32.028Z,2.69
2023-04-26T03:52:32.037Z,2.73
2023-04-26T03:53:32.042Z,2.79
2023-04-26T03:54:32.064Z,2.82
2023-04-26T03:55:32.068Z,2.88
2023-04-26T03:56:32.083Z,2.90
2023-04-26T03:57:32.093Z,2.90
2023-04-26T03:58:32.099Z,2.91
2023-04-26T03:59:32.104Z,2.90
2023-04-26T04:00:32.115Z,2.86
2023-04-26T04:01:32.126Z,2.83
2023-04-26T04:02:32.203Z,2.77
2023-04-26T04:03:32.276Z,2.68
2023-04-26T04:04:32.399Z,2.66
2023-04-26T04:05:32.181Z,2.60
2023-04-26T04:06:32.185Z,2.57
2023-04-26T04:07:32.190Z,2.57
2023-04-26T04:08:32.200Z,2.59
2023-04-26T04:09:32.211Z,2.63
2023-04-26T04:10:32.249Z,2.64
2023-04-26T04:11:32.228Z,2.64
2023-04-26T04:12:32.234Z,2.66
2023-04-26T04:13:32.247Z,2.68
2023-04-26T04:14:32.258Z,2.71
2023-04-26T04:15:32.275Z,2.76
2023-04-26T04:16:32.300Z,2.81
2023-04-26T04:17:32.313Z,2.74
2023-04-26T04:18:32.300Z,2.69
2023-04-26T04:19:32.316Z,2.68
2023-04-26T04:20:32.314Z,2.65
2023-04-26T04:21:32.319Z,2.63
2023-04-26T04:22:32.336Z,2.59
2023-04-26T04:23:32.346Z,2.60
2023-04-26T04:24:34.318Z,2.61
2023-04-26T04:25:32.375Z,2.63
2023-04-26T04:26:32.386Z,2.62
2023-04-26T04:27:32.392Z,2.64
2023-04-26T04:28:32.405Z,2.69
2023-04-26T04:29:32.415Z,2.70
2023-04-26T04:30:32.437Z,2.73
2023-04-26T04:31:32.478Z,2.75
2023-04-26T04:32:32.499Z,2.70
2023-04-26T04:33:32.492Z,2.75
2023-04-26T04:34:32.476Z,2.68
2023-04-26T04:35:32.490Z,2.68
2023-04-26T04:36:32.524Z,2.72
2023-04-26T04:37:32.504Z,2.72
2023-04-26T04:38:32.515Z,2.72
2023-04-26T04:39:32.528Z,2.73
2023-04-26T04:40:32.544Z,2.73
2023-04-26T04:41:32.557Z,2.73
2023-04-26T04:42:32.574Z,2.71
2023-04-26T04:43:32.583Z,2.73
2023-04-26T04:44:32.588Z,2.78
2023-04-26T04:45:32.602Z,2.82
2023-04-26T04:46:32.629Z,2.90
2023-04-26T04:47:32.636Z,3.00
2023-04-26T04:48:32.639Z,3.11
2023-04-26T04:49:32.648Z,3.19
2023-04-26T04:50:32.661Z,3.24
2023-04-26T04:51:32.661Z,3.31
2023-04-26T04:52:32.675Z,3.29
2023-04-26T04:53:32.684Z,3.24
2023-04-26T04:54:32.707Z,3.24
2023-04-26T04:55:32.707Z,3.22
2023-04-26T04:56:32.710Z,3.22
2023-04-26T04:57:32.729Z,3.19
2023-04-26T04:58:32.734Z,3.21
2023-04-26T04:59:32.746Z,3.26
2023-04-26T05:00:32.761Z,3.25
2023-04-26T05:01:32.782Z,3.24
2023-04-26T05:02:32.830Z,3.26
2023-04-26T05:03:32.933Z,3.23
2023-04-26T05:04:32.870Z,3.25
2023-04-26T05:05:32.825Z,3.31
2023-04-26T05:06:32.850Z,3.33
2023-04-26T05:07:32.836Z,3.39
2023-04-26T05:08:32.854Z,3.43
2023-04-26T05:09:32.874Z,3.48
2023-04-26T05:10:32.877Z,3.51
2023-04-26T05:11:32.883Z,3.56
2023-04-26T05:12:32.893Z,3.58
2023-04-26T05:13:32.910Z,3.59
2023-04-26T05:14:32.922Z,3.61
2023-04-26T05:15:32.934Z,3.57
2023-04-26T05:16:32.943Z,3.57
2023-04-26T05:17:32.984Z,3.55
2023-04-26T05:18:32.965Z,3.58
2023-04-26T05:19:32.976Z,3.63
2023-04-26T05:20:33.054Z,3.63
2023-04-26T05:21:32.998Z,3.68
2023-04-26T05:22:33.007Z,3.74
2023-04-26T05:23:33.017Z,3.77
2023-04-26T05:24:33.032Z,3.83
2023-04-26T05:25:33.040Z,3.81
2023-04-26T05:26:33.054Z,3.82
2023-04-26T05:27:33.063Z,3.83
2023-04-26T05:28:33.067Z,3.80
2023-04-26T05:29:33.102Z,3.70
2023-04-26T05:30:33.094Z,3.65
2023-04-26T05:31:33.123Z,3.58
2023-04-26T05:32:33.158Z,3.49
2023-04-26T05:33:33.131Z,3.37
2023-04-26T05:34:33.145Z,3.34
2023-04-26T05:35:33.151Z,3.28
2023-04-26T05:36:33.166Z,3.26
2023-04-26T05:37:33.177Z,3.20
2023-04-26T05:38:33.195Z,3.19
2023-04-26T05:39:33.200Z,3.18
2023-04-26T05:40:33.218Z,3.17
2023-04-26T05:41:33.221Z,3.17
2023-04-26T05:42:33.236Z,3.20
2023-04-26T05:43:33.243Z,3.19
2023-04-26T05:44:33.251Z,3.22
2023-04-26T05:45:33.301Z,3.22
2023-04-26T05:46:33.278Z,3.22
2023-04-26T05:47:33.295Z,3.26
2023-04-26T05:48:33.306Z,3.27
2023-04-26T05:49:33.306Z,3.31
2023-04-26T05:50:33.319Z,3.40
2023-04-26T05:51:33.325Z,3.52
2023-04-26T05:52:33.333Z,3.61
2023-04-26T05:53:33.341Z,3.77
2023-04-26T05:54:33.361Z,3.94
2023-04-26T05:55:33.376Z,4.07
2023-04-26T05:56:33.385Z,4.19
2023-04-26T05:57:33.539Z,4.28
2023-04-26T05:58:33.408Z,4.33
2023-04-26T05:59:33.417Z,4.36
2023-04-26T06:00:33.438Z,4.41
2023-04-26T06:01:33.442Z,4.43
2023-04-26T06:02:33.575Z,4.46
2023-04-26T06:03:33.775Z,4.52
2023-04-26T06:04:33.559Z,4.53
2023-04-26T06:05:33.489Z,4.61
2023-04-26T06:06:33.496Z,4.63
2023-04-26T06:07:33.502Z,4.73
2023-04-26T06:08:33.513Z,4.74
2023-04-26T06:09:33.519Z,4.78
2023-04-26T06:10:33.536Z,4.81
2023-04-26T06:11:33.547Z,4.79
2023-04-26T06:12:33.552Z,4.76
2023-04-26T06:13:33.567Z,4.80
2023-04-26T06:14:33.581Z,4.84
2023-04-26T06:15:33.591Z,4.82
2023-04-26T06:16:33.633Z,4.79
2023-04-26T06:17:33.626Z,4.79
2023-04-26T06:18:33.623Z,4.73
2023-04-26T06:19:33.631Z,4.69
2023-04-26T06:20:33.650Z,4.71
2023-04-26T06:21:33.654Z,4.73
2023-04-26T06:22:33.657Z,4.67
2023-04-26T06:23:33.669Z,4.66
2023-04-26T06:24:33.683Z,4.61
2023-04-26T06:25:33.691Z,4.58
2023-04-26T06:26:33.699Z,4.59
2023-04-26T06:27:33.708Z,4.59
2023-04-26T06:28:33.717Z,4.53
2023-04-26T06:29:33.732Z,4.49
2023-04-26T06:30:33.740Z,4.40
2023-04-26T06:31:33.760Z,4.35
2023-04-26T06:32:33.805Z,4.30
2023-04-26T06:33:33.811Z,4.24
2023-04-26T06:34:33.818Z,4.18
2023-04-26T06:35:33.813Z,4.10
2023-04-26T06:36:33.817Z,4.07
2023-04-26T06:37:33.826Z,4.08
2023-04-26T06:38:33.839Z,4.09
2023-04-26T06:39:33.837Z,4.08
2023-04-26T06:40:33.855Z,4.09
2023-04-26T06:41:33.855Z,4.14
2023-04-26T06:42:33.875Z,4.18
2023-04-26T06:43:33.885Z,4.22
2023-04-26T06:44:33.890Z,4.26
2023-04-26T06:45:33.900Z,4.32
2023-04-26T06:46:33.928Z,4.37
2023-04-26T06:47:33.985Z,4.43
2023-04-26T06:48:33.940Z,4.46
2023-04-26T06:49:33.949Z,4.52
2023-04-26T06:50:33.951Z,4.54
2023-04-26T06:51:33.964Z,4.62
2023-04-26T06:52:33.978Z,4.68
2023-04-26T06:53:33.984Z,4.69
2023-04-26T06:54:36.093Z,4.71
2023-04-26T06:55:34.324Z,4.74
2023-04-26T06:56:34.017Z,4.74
2023-04-26T06:57:34.034Z,4.77
2023-04-26T06:58:34.045Z,4.84
2023-04-26T06:59:34.047Z,4.86
2023-04-26T07:00:34.051Z,4.89
2023-04-26T07:01:34.197Z,4.85
2023-04-26T07:02:34.203Z,4.86
2023-04-26T07:03:34.203Z,4.87
2023-04-26T07:04:34.297Z,4.89
2023-04-26T07:05:34.115Z,4.90
2023-04-26T07:06:34.377Z,4.95
2023-04-26T07:07:34.120Z,4.97
2023-04-26T07:08:34.140Z,5.00
2023-04-26T07:09:34.345Z,5.07
2023-04-26T07:10:34.410Z,5.07
2023-04-26T07:11:34.176Z,5.11
2023-04-26T07:12:34.207Z,5.12
2023-04-26T07:13:34.348Z,5.14
2023-04-26T07:14:34.201Z,5.20
2023-04-26T07:15:34.215Z,5.22
2023-04-26T07:16:34.275Z,5.25
2023-04-26T07:17:34.284Z,5.25
2023-04-26T07:18:34.256Z,5.26
2023-04-26T07:19:34.287Z,5.27
2023-04-26T07:20:34.279Z,5.34
2023-04-26T07:21:34.293Z,5.38
2023-04-26T07:22:34.309Z,5.43
2023-04-26T07:23:34.315Z,5.48
2023-04-26T07:24:34.326Z,5.49
2023-04-26T07:25:34.344Z,5.58
2023-04-26T07:26:34.367Z,5.70
2023-04-26T07:27:34.368Z,5.82
2023-04-26T07:28:34.376Z,5.89
2023-04-26T07:29:34.382Z,5.92
2023-04-26T07:30:34.398Z,5.93
2023-04-26T07:31:34.410Z,5.90
2023-04-26T07:32:34.489Z,5.92
2023-04-26T07:33:34.523Z,5.97
2023-04-26T07:34:34.440Z,6.07
2023-04-26T07:35:34.441Z,6.18
2023-04-26T07:36:34.470Z,6.36
2023-04-26T07:37:34.474Z,6.51
2023-04-26T07:38:34.491Z,6.64
2023-04-26T07:39:34.489Z,6.83
2023-04-26T07:40:34.497Z,6.90
2023-04-26T07:41:34.514Z,6.99
2023-04-26T07:42:34.520Z,7.08
2023-04-26T07:43:34.530Z,7.21
2023-04-26T07:44:34.553Z,7.38
2023-04-26T07:45:34.573Z,7.43
2023-04-26T07:46:34.566Z,7.53
2023-04-26T07:47:34.586Z,7.67
2023-04-26T07:48:34.589Z,7.75
2023-04-26T07:49:34.594Z,7.79
2023-04-26T07:50:34.603Z,7.88
2023-04-26T07:51:34.617Z,7.96
2023-04-26T07:52:34.641Z,7.99
2023-04-26T07:53:34.644Z,7.98
2023-04-26T07:54:34.650Z,7.96
2023-04-26T07:55:34.659Z,8.01
2023-04-26T07:56:34.679Z,8.04
2023-04-26T07:57:34.685Z,8.03
2023-04-26T07:58:34.699Z,8.02
2023-04-26T07:59:34.707Z,7.93
2023-04-26T08:00:34.728Z,7.88
2023-04-26T08:01:34.736Z,7.95
2023-04-26T08:02:44.384Z,8.12
2023-04-26T08:03:35.013Z,8.25
2023-04-26T08:04:34.994Z,8.36
2023-04-26T08:05:35.027Z,8.51
2023-04-26T08:06:34.812Z,8.70
2023-04-26T08:07:34.816Z,8.76
2023-04-26T08:08:34.833Z,8.76
2023-04-26T08:09:34.845Z,8.62
2023-04-26T08:10:34.855Z,8.46
2023-04-26T08:11:35.021Z,8.24
2023-04-26T08:12:34.875Z,8.09
2023-04-26T08:13:34.885Z,8.00
2023-04-26T08:14:34.889Z,7.77
2023-04-26T08:15:34.895Z,7.47
2023-04-26T08:16:34.932Z,7.29
2023-04-26T08:17:34.947Z,7.15
2023-04-26T08:18:34.931Z,7.13
2023-04-26T08:19:34.936Z,7.09
2023-04-26T08:20:34.948Z,7.11
2023-04-26T08:21:34.968Z,7.16
2023-04-26T08:22:34.991Z,7.24
2023-04-26T08:23:34.977Z,7.34
2023-04-26T08:24:35.007Z,7.36
2023-04-26T08:25:35.027Z,7.17
2023-04-26T08:26:35.021Z,7.02
2023-04-26T08:27:35.027Z,6.82
2023-04-26T08:28:35.033Z,6.63
2023-04-26T08:29:35.055Z,6.57
2023-04-26T08:30:35.092Z,6.52
2023-04-26T08:31:35.137Z,6.46
2023-04-26T08:32:35.124Z,6.48
2023-04-26T08:33:35.105Z,6.43
2023-04-26T08:34:35.126Z,6.35
2023-04-26T08:35:35.137Z,6.32
2023-04-26T08:36:35.147Z,6.33
2023-04-26T08:37:35.154Z,6.32
2023-04-26T08:38:35.163Z,6.29
2023-04-26T08:39:35.185Z,6.30
2023-04-26T08:40:35.196Z,6.30
2023-04-26T08:41:35.201Z,6.31
2023-04-26T08:42:36.964Z,6.37
2023-04-26T08:43:35.215Z,6.46
2023-04-26T08:44:35.222Z,6.58
2023-04-26T08:45:35.253Z,6.66
2023-04-26T08:46:35.271Z,6.83
2023-04-26T08:47:35.304Z,6.96
2023-04-26T08:48:35.279Z,7.12
2023-04-26T08:49:35.288Z,7.31
2023-04-26T08:50:35.298Z,7.37
2023-04-26T08:51:35.324Z,7.42
2023-04-26T08:52:35.325Z,7.45
2023-04-26T08:53:35.336Z,7.48
2023-04-26T08:54:35.358Z,7.61
2023-04-26T08:55:35.368Z,7.67
2023-04-26T08:56:35.385Z,7.83
2023-04-26T08:57:35.389Z,7.94
2023-04-26T08:58:35.432Z,8.18
2023-04-26T08:59:35.428Z,8.33
2023-04-26T09:00:35.444Z,8.45
2023-04-26T09:01:35.480Z,8.54
2023-04-26T09:02:35.556Z,8.68
2023-04-26T09:03:35.544Z,8.83
2023-04-26T09:04:35.581Z,9.02
2023-04-26T09:05:35.513Z,9.01
2023-04-26T09:06:35.518Z,9.03
2023-04-26T09:07:35.532Z,9.13
2023-04-26T09:08:35.557Z,9.14
2023-04-26T09:09:35.554Z,9.12
2023-04-26T09:10:35.571Z,8.89
2023-04-26T09:11:35.586Z,8.73
2023-04-26T09:12:35.599Z,8.67
2023-04-26T09:13:35.614Z,8.62
2023-04-26T09:14:35.629Z,8.42
2023-04-26T09:15:35.674Z,8.27
2023-04-26T09:16:35.701Z,8.17
2023-04-26T09:17:35.663Z,8.14
2023-04-26T09:18:35.666Z,8.11
2023-04-26T09:19:35.666Z,8.03
2023-04-26T09:20:35.676Z,7.90
2023-04-26T09:21:35.684Z,7.68
2023-04-26T09:22:35.703Z,7.47
2023-04-26T09:23:35.772Z,7.33
2023-04-26T09:24:35.729Z,7.18
2023-04-26T09:25:35.746Z,7.04
2023-04-26T09:26:35.756Z,6.85
2023-04-26T09:27:35.769Z,6.70
2023-04-26T09:28:35.773Z,6.58
2023-04-26T09:29:35.777Z,6.50
2023-04-26T09:30:35.799Z,6.40
2023-04-26T09:31:35.845Z,6.36
2023-04-26T09:32:35.826Z,6.44
2023-04-26T09:33:35.820Z,6.55
2023-04-26T09:34:35.840Z,6.66
2023-04-26T09:35:35.848Z,6.71
2023-04-26T09:36:35.864Z,6.82
2023-04-26T09:37:38.936Z,6.87
2023-04-26T09:38:35.885Z,6.85
2023-04-26T09:39:35.902Z,6.75
2023-04-26T09:40:35.909Z,6.62
2023-04-26T09:41:35.920Z,6.55
2023-04-26T09:42:35.941Z,6.48
2023-04-26T09:43:35.951Z,6.36
2023-04-26T09:44:35.957Z,6.32
2023-04-26T09:45:35.973Z,6.27
2023-04-26T09:46:36.021Z,6.31
2023-04-26T09:47:36.024Z,6.30
2023-04-26T09:48:36.023Z,6.34
2023-04-26T09:49:36.023Z,6.40
2023-04-26T09:50:36.044Z,6.56
2023-04-26T09:51:36.049Z,6.72
2023-04-26T09:52:36.067Z,6.85
2023-04-26T09:53:36.082Z,6.88
2023-04-26T09:54:36.094Z,6.92
2023-04-26T09:55:36.186Z,6.95
2023-04-26T09:56:36.111Z,7.08
2023-04-26T09:57:36.122Z,7.16
2023-04-26T09:58:36.133Z,7.24
2023-04-26T09:59:36.133Z,7.36
2023-04-26T10:00:36.188Z,7.42
2023-04-26T10:01:36.185Z,7.54
2023-04-26T10:02:36.208Z,7.71
2023-04-26T10:03:36.478Z,7.86
2023-04-26T10:04:36.207Z,8.08
2023-04-26T10:05:36.204Z,8.34
2023-04-26T10:06:36.221Z,8.59
2023-04-26T10:07:36.237Z,8.78
2023-04-26T10:08:36.254Z,8.76
2023-04-26T10:09:36.264Z,8.76
2023-04-26T10:10:36.285Z,8.86
2023-04-26T10:11:36.300Z,9.00
2023-04-26T10:12:36.314Z,9.23
2023-04-26T10:13:36.352Z,9.52
2023-04-26T10:14:36.326Z,9.78
2023-04-26T10:15:36.329Z,9.93
2023-04-26T10:16:36.355Z,10.03
2023-04-26T10:17:36.382Z,10.12
2023-04-26T10:18:36.365Z,10.28
2023-04-26T10:19:36.389Z,10.31
2023-04-26T10:20:36.377Z,10.31
2023-04-26T10:21:36.382Z,10.30
2023-04-26T10:22:36.409Z,10.27
2023-04-26T10:23:36.406Z,10.00
2023-04-26T10:24:36.411Z,9.90
2023-04-26T10:25:36.428Z,9.90
2023-04-26T10:26:36.429Z,10.01
2023-04-26T10:27:36.443Z,10.12
2023-04-26T10:28:36.455Z,10.13
2023-04-26T10:29:36.474Z,10.15
2023-04-26T10:30:36.473Z,10.17
2023-04-26T10:31:36.503Z,10.16
2023-04-26T10:32:36.514Z,10.14
2023-04-26T10:33:36.512Z,10.10
2023-04-26T10:34:36.528Z,10.13
2023-04-26T10:35:36.538Z,10.14
2023-04-26T10:36:36.565Z,9.90
2023-04-26T10:37:36.565Z,9.94
2023-04-26T10:38:36.585Z,9.88
2023-04-26T10:39:36.590Z,9.92
2023-04-26T10:40:36.598Z,9.94
2023-04-26T10:41:36.609Z,10.02
2023-04-26T10:42:36.631Z,9.95
2023-04-26T10:43:36.638Z,9.93
2023-04-26T10:44:36.652Z,10.12
2023-04-26T10:45:36.717Z,10.34
2023-04-26T10:46:36.851Z,10.60
2023-04-26T10:47:36.710Z,10.79
2023-04-26T10:48:36.702Z,11.01
2023-04-26T10:49:36.712Z,11.17
2023-04-26T10:50:36.730Z,11.07
2023-04-26T10:51:36.746Z,10.94
2023-04-26T10:52:36.762Z,10.69
2023-04-26T10:53:36.770Z,10.49
2023-04-26T10:54:36.788Z,10.14
2023-04-26T10:55:36.790Z,10.06
2023-04-26T10:56:36.807Z,9.91
2023-04-26T10:57:36.816Z,9.76
2023-04-26T10:58:36.840Z,9.74
2023-04-26T10:59:47.457Z,9.66
2023-04-26T11:00:36.864Z,9.38
2023-04-26T11:01:36.883Z,9.24
2023-04-26T11:02:37.009Z,9.16
2023-04-26T11:03:36.987Z,9.17
2023-04-26T11:04:36.922Z,9.23
2023-04-26T11:05:36.940Z,9.31
2023-04-26T11:06:36.954Z,9.36
2023-04-26T11:07:36.976Z,9.46
2023-04-26T11:08:37.006Z,9.56
2023-04-26T11:09:37.087Z,9.67
2023-04-26T11:10:37.002Z,9.75
2023-04-26T11:11:37.009Z,9.78
2023-04-26T11:12:37.016Z,9.73
2023-04-26T11:13:37.029Z,9.65
2023-04-26T11:14:37.052Z,9.58
2023-04-26T11:15:37.083Z,9.48
2023-04-26T11:16:37.171Z,9.41
2023-04-26T11:17:37.125Z,9.37
2023-04-26T11:18:37.093Z,9.37
2023-04-26T11:19:37.102Z,9.39
2023-04-26T11:20:37.125Z,9.17
2023-04-26T11:21:37.131Z,9.13
2023-04-26T11:22:37.151Z,9.12
2023-04-26T11:23:37.157Z,9.02
2023-04-26T11:24:37.174Z,8.96
2023-04-26T11:25:37.187Z,8.97
2023-04-26T11:26:37.202Z,8.97
2023-04-26T11:27:37.221Z,8.88
2023-04-26T11:28:37.230Z,8.81
2023-04-26T11:29:37.247Z,8.76
2023-04-26T11:30:37.262Z,8.74
2023-04-26T11:31:37.295Z,8.71
2023-04-26T11:32:37.310Z,8.76
2023-04-26T11:33:37.297Z,8.82
2023-04-26T11:34:37.315Z,8.87
2023-04-26T11:35:37.327Z,8.85
2023-04-26T11:36:37.342Z,8.84
2023-04-26T11:37:37.357Z,8.83
2023-04-26T11:38:37.376Z,8.81
2023-04-26T11:39:37.383Z,8.82
2023-04-26T11:40:37.401Z,8.82
2023-04-26T11:41:37.426Z,8.85
2023-04-26T11:42:37.412Z,8.80
2023-04-26T11:43:37.458Z,8.81
2023-04-26T11:44:37.460Z,8.81
2023-04-26T11:45:37.456Z,8.79
2023-04-26T11:46:37.507Z,8.86
2023-04-26T11:47:37.480Z,8.93
2023-04-26T11:48:37.493Z,9.00
2023-04-26T11:49:37.503Z,9.01
2023-04-26T11:50:37.506Z,8.97
2023-04-26T11:51:37.514Z,8.98
2023-04-26T11:52:37.525Z,9.01
2023-04-26T11:53:37.540Z,9.08
2023-04-26T11:54:37.663Z,9.17
2023-04-26T11:55:37.577Z,9.17
2023-04-26T11:56:37.584Z,9.22
2023-04-26T11:57:37.593Z,9.24
2023-04-26T11:58:37.596Z,9.33
2023-04-26T11:59:37.619Z,9.51
2023-04-26T12:00:37.628Z,9.71
2023-04-26T12:01:37.645Z,9.96
2023-04-26T12:02:37.699Z,10.15
2023-04-26T12:03:38.160Z,10.30
2023-04-26T12:04:37.948Z,10.42
2023-04-26T12:05:37.690Z,10.42
2023-04-26T12:06:37.688Z,10.37
2023-04-26T12:07:37.701Z,10.16
2023-04-26T12:08:37.709Z,10.12
2023-04-26T12:09:37.756Z,9.93
2023-04-26T12:10:37.728Z,9.82
2023-04-26T12:11:37.754Z,9.80
2023-04-26T12:12:37.778Z,9.74
2023-04-26T12:13:37.789Z,9.70
2023-04-26T12:14:37.805Z,9.75
2023-04-26T12:15:37.807Z,9.80
2023-04-26T12:16:37.894Z,9.85
2023-04-26T12:17:37.887Z,9.81
2023-04-26T12:18:37.854Z,9.68
2023-04-26T12:19:37.868Z,9.69
2023-04-26T12:20:37.888Z,9.77
2023-04-26T12:21:37.890Z,9.87
2023-04-26T12:22:37.904Z,9.96
2023-04-26T12:23:37.931Z,10.11
2023-04-26T12:24:37.947Z,10.21
2023-04-26T12:25:37.925Z,10.38
2023-04-26T12:26:37.951Z,10.34
2023-04-26T12:27:37.967Z,10.30
2023-04-26T12:28:38.007Z,10.24
2023-04-26T12:29:37.981Z,10.30
2023-04-26T12:30:37.979Z,10.26
2023-04-26T12:31:38.040Z,10.17
2023-04-26T12:32:38.036Z,10.19
2023-04-26T12:33:38.042Z,10.28
2023-04-26T12:34:38.039Z,10.39
2023-04-26T12:35:38.046Z,10.56
2023-04-26T12:36:38.067Z,10.76
2023-04-26T12:37:38.069Z,10.93
2023-04-26T12:38:38.081Z,11.03
2023-04-26T12:39:38.089Z,11.00
2023-04-26T12:40:38.119Z,10.89
2023-04-26T12:41:38.118Z,10.84
2023-04-26T12:42:38.147Z,10.96
2023-04-26T12:43:38.146Z,11.08
2023-04-26T12:44:38.163Z,11.21
2023-04-26T12:45:38.174Z,11.14
2023-04-26T12:46:38.298Z,11.14
2023-04-26T12:47:38.228Z,11.00
2023-04-26T12:48:38.216Z,10.82
2023-04-26T12:49:38.226Z,10.72
2023-04-26T12:50:38.224Z,10.65
2023-04-26T12:51:38.248Z,10.52
2023-04-26T12:52:38.253Z,10.43
2023-04-26T12:53:38.269Z,10.50
2023-04-26T12:54:38.289Z,10.38
2023-04-26T12:55:38.354Z,10.35
2023-04-26T12:56:38.315Z,10.39
2023-04-26T12:57:38.320Z,10.51
2023-04-26T12:58:38.344Z,10.57
2023-04-26T12:59:38.351Z,10.59
2023-04-26T13:00:38.352Z,10.50
2023-04-26T13:01:38.409Z,10.35
2023-04-26T13:02:38.462Z,10.32
2023-04-26T13:03:38.493Z,10.28
2023-04-26T13:04:40.893Z,10.16
2023-04-26T13:05:38.426Z,10.14
2023-04-26T13:06:38.430Z,10.22
2023-04-26T13:07:38.440Z,10.29
2023-04-26T13:08:38.457Z,10.36
2023-04-26T13:09:38.478Z,10.36
2023-04-26T13:10:38.489Z,10.46
2023-04-26T13:11:38.531Z,10.36
2023-04-26T13:12:38.545Z,10.19
2023-04-26T13:13:43.418Z,10.12
2023-04-26T13:14:38.545Z,10.11
2023-04-26T13:15:38.555Z,10.18
2023-04-26T13:16:38.556Z,10.22
2023-04-26T13:17:38.618Z,10.28
2023-04-26T13:18:38.652Z,10.40
2023-04-26T13:19:38.593Z,10.53
2023-04-26T13:20:38.620Z,10.50
2023-04-26T13:21:38.626Z,10.38
2023-04-26T13:22:38.663Z,10.16
2023-04-26T13:23:38.672Z,9.92
2023-04-26T13:24:38.674Z,9.91
2023-04-26T13:25:38.686Z,9.96
2023-04-26T13:26:38.704Z,9.95
2023-04-26T13:27:38.713Z,9.92
2023-04-26T13:28:38.730Z,9.92
2023-04-26T13:29:38.743Z,10.03
2023-04-26T13:30:38.761Z,10.04
2023-04-26T13:31:38.802Z,10.08
2023-04-26T13:32:38.827Z,10.03